Time;durP1;ratioP1;P1;durP2;ratioP2;P2;SDS_P1;SDS_P2;PMS_P1;PMS_P2;Temp;Humidity;BMP_temperature;BMP_pressure;BME280_temperature;BME280_humidity;BME280_pressure;Samples;Min_cycle;Max_cycle;Signal;HPM_P1;HPM_P2
2022/05/25 00:00:38;;;;;;;6.88;4.57;;;12.10;99.90;;;;;;5093334;28;20047;-69
2022/05/25 00:03:05;;;;;;;5.95;4.55;;;12.10;99.90;;;;;;5058661;28;20077;-71
2022/05/25 00:05:30;;;;;;;6.32;5.13;;;12.10;99.90;;;;;;5075057;28;20052;-69
2022/05/25 00:08:00;;;;;;;6.15;4.70;;;12.10;99.90;;;;;;5093099;28;20063;-69
2022/05/25 00:10:25;;;;;;;7.18;5.28;;;12.10;99.90;;;;;;5093016;28;20449;-69
2022/05/25 00:12:51;;;;;;;8.65;5.38;;;12.00;99.90;;;;;;5093333;28;20177;-70
2022/05/25 00:15:17;;;;;;;9.20;4.63;;;12.70;99.90;;;;;;5093161;28;20063;-73
2022/05/25 00:17:43;;;;;;;7.28;5.38;;;12.00;99.90;;;;;;5075352;28;20503;-70
2022/05/25 00:20:10;;;;;;;6.35;4.93;;;12.60;99.90;;;;;;5093100;28;20482;-69
2022/05/25 00:22:46;;;;;;;8.38;5.25;;;12.00;99.90;;;;;;5075027;28;20056;-69
2022/05/25 00:25:15;;;;;;;6.63;5.28;;;11.90;99.90;;;;;;5092849;28;20082;-69
2022/05/25 00:27:41;;;;;;;6.45;5.68;;;11.90;99.90;;;;;;5075363;28;20070;-69
2022/05/25 00:30:08;;;;;;;6.45;5.50;;;12.00;99.90;;;;;;5093096;28;20039;-73
2022/05/25 00:32:33;;;;;;;6.88;6.13;;;11.90;99.90;;;;;;5092989;28;20070;-69
2022/05/25 00:34:59;;;;;;;7.05;5.35;;;11.90;99.90;;;;;;5092859;28;20040;-69
2022/05/25 00:37:25;;;;;;;7.82;5.95;;;11.90;99.90;;;;;;5092905;28;20165;-71
2022/05/25 00:39:50;;;;;;;10.73;6.18;;;11.80;99.90;;;;;;5092867;28;20044;-70
2022/05/25 00:42:16;;;;;;;8.98;5.60;;;12.50;99.90;;;;;;5075178;28;20438;-69
2022/05/25 00:44:42;;;;;;;11.23;5.57;;;11.80;99.90;;;;;;5092926;28;20032;-69
2022/05/25 00:47:11;;;;;;;5.93;4.88;;;11.70;99.90;;;;;;5092922;28;20040;-71
2022/05/25 00:49:37;;;;;;;9.55;6.10;;;11.70;99.90;;;;;;5074926;28;20480;-69
2022/05/25 00:52:06;;;;;;;8.70;6.18;;;11.70;99.90;;;;;;5075027;28;20093;-74
2022/05/25 00:54:40;;;;;;;7.90;5.60;;;11.70;99.90;;;;;;5057809;28;20052;-69
2022/05/25 00:57:09;;;;;;;9.13;6.13;;;11.70;99.90;;;;;;5075001;28;20052;-71
2022/05/25 00:59:54;;;;;;;9.93;5.93;;;11.70;99.90;;;;;;5074799;28;20573;-69
2022/05/25 01:02:20;;;;;;;10.80;5.18;;;11.60;99.90;;;;;;5095582;28;20055;-69
2022/05/25 01:04:47;;;;;;;7.63;5.15;;;11.60;99.90;;;;;;5096001;28;20055;-74
2022/05/25 01:07:21;;;;;;;7.05;5.78;;;11.60;99.90;;;;;;5078197;28;20101;-70
2022/05/25 01:10:00;;;;;;;11.73;6.13;;;11.60;99.90;;;;;;5112424;28;20148;-70
2022/05/25 01:12:38;;;;;;;8.48;4.70;;;11.60;99.90;;;;;;5096222;28;20051;-70
2022/05/25 01:15:27;;;;;;;11.32;6.25;;;11.60;99.90;;;;;;5077970;28;20529;-70
2022/05/25 01:18:17;;;;;;;10.15;6.50;;;11.60;99.90;;;;;;5096177;28;20044;-71
2022/05/25 01:20:53;;;;;;;8.43;5.63;;;11.60;99.90;;;;;;5096120;28;20043;-69
2022/05/25 01:23:40;;;;;;;8.13;5.47;;;11.60;99.90;;;;;;5096006;28;20086;-69
2022/05/25 01:26:41;;;;;;;7.13;5.93;;;11.60;99.90;;;;;;5095744;28;20087;-69
2022/05/25 01:29:27;;;;;;;9.48;5.72;;;11.50;99.90;;;;;;5095743;28;20514;-69
2022/05/25 01:32:13;;;;;;;8.88;6.18;;;11.50;99.90;;;;;;5095852;28;20048;-69
2022/05/25 01:34:43;;;;;;;6.77;5.47;;;11.50;99.90;;;;;;5077683;28;20416;-69
2022/05/25 01:37:19;;;;;;;9.20;5.47;;;11.40;99.90;;;;;;5095832;28;20385;-69
2022/05/25 01:40:00;;;;;;;7.40;6.07;;;11.40;99.90;;;;;;5095722;28;20048;-72
2022/05/25 01:42:33;;;;;;;8.85;6.18;;;11.50;99.90;;;;;;5095548;28;20058;-69
2022/05/25 01:45:03;;;;;;;7.55;6.00;;;11.40;99.90;;;;;;5095460;28;20040;-74
2022/05/25 01:47:33;;;;;;;10.63;6.57;;;11.40;99.90;;;;;;5095738;28;20048;-73
2022/05/25 01:50:09;;;;;;;10.15;6.72;;;11.40;99.90;;;;;;5095310;28;20440;-69
2022/05/25 01:52:58;;;;;;;9.25;7.15;;;11.40;99.90;;;;;;5095433;28;20054;-69
2022/05/25 01:55:37;;;;;;;11.18;7.65;;;11.90;99.90;;;;;;5094399;28;20056;-69
2022/05/25 01:58:09;;;;;;;12.13;8.45;;;11.30;99.90;;;;;;5095425;28;20052;-72
2022/05/25 02:00:38;;;;;;;11.77;7.72;;;11.30;99.90;;;;;;5095390;28;20096;-69
2022/05/25 02:06:23;;;;;;;9.38;7.43;;;11.30;99.90;;;;;;5095040;28;20078;-69
2022/05/25 02:09:01;;;;;;;9.07;6.68;;;11.30;99.90;;;;;;5095164;28;20052;-69
2022/05/25 02:11:39;;;;;;;9.10;7.57;;;11.20;99.90;;;;;;5095047;28;20070;-71
2022/05/25 02:14:14;;;;;;;11.25;8.07;;;11.10;99.90;;;;;;5094803;28;20478;-72
2022/05/25 02:16:46;;;;;;;9.48;7.95;;;11.10;99.90;;;;;;5095109;28;20590;-69
2022/05/25 02:19:24;;;;;;;10.82;8.40;;;11.00;99.90;;;;;;5076497;28;20496;-69
2022/05/25 02:21:54;;;;;;;9.13;7.85;;;11.00;99.90;;;;;;5094917;28;20395;-69
2022/05/25 02:24:53;;;;;;;10.23;7.80;;;11.00;99.90;;;;;;5076895;28;20072;-69
2022/05/25 02:27:32;;;;;;;10.13;9.02;;;10.90;99.90;;;;;;5094828;28;20040;-69
2022/05/25 02:30:06;;;;;;;11.02;8.65;;;11.00;99.90;;;;;;5076653;28;20050;-70
2022/05/25 02:32:44;;;;;;;10.77;8.15;;;10.90;99.90;;;;;;5094358;28;20523;-69
2022/05/25 02:35:10;;;;;;;11.48;8.30;;;10.90;99.90;;;;;;5076360;28;20046;-69
2022/05/25 02:37:36;;;;;;;;;;;10.90;99.90;;;;;;5076905;28;20048;-69
2022/05/25 02:40:05;;;;;;;10.18;8.40;;;10.90;99.90;;;;;;5094700;28;19920;-71
2022/05/25 02:42:32;;;;;;;10.45;8.10;;;10.90;99.90;;;;;;5094478;28;20044;-69
2022/05/25 02:44:57;;;;;;;9.57;8.20;;;10.80;99.90;;;;;;5076646;28;20518;-72
2022/05/25 02:47:23;;;;;;;13.40;9.30;;;10.80;99.90;;;;;;5076493;28;20047;-69
2022/05/25 02:49:49;;;;;;;10.68;8.10;;;10.80;99.90;;;;;;5094256;28;20381;-69
2022/05/25 02:52:14;;;;;;;11.32;8.68;;;10.80;99.90;;;;;;5110167;28;20127;-69
2022/05/25 02:54:40;;;;;;;11.10;9.00;;;10.80;99.90;;;;;;5110136;28;20373;-69
2022/05/25 02:57:07;;;;;;;9.50;7.75;;;10.80;99.90;;;;;;5076296;28;20384;-69
2022/05/25 02:59:33;;;;;;;10.10;8.23;;;10.80;99.90;;;;;;5076295;28;20044;-69
2022/05/25 03:02:01;;;;;;;13.57;8.70;;;10.80;99.90;;;;;;5076284;28;20059;-69
2022/05/25 03:04:27;;;;;;;10.95;8.38;;;10.80;99.90;;;;;;5093632;28;20059;-70
2022/05/25 03:06:53;;;;;;;10.52;8.40;;;10.80;99.90;;;;;;5093722;28;20573;-73
2022/05/25 03:09:19;;;;;;;10.38;8.48;;;11.20;99.90;;;;;;5075980;28;20048;-69
2022/05/25 03:11:45;;;;;;;14.85;9.20;;;10.80;99.90;;;;;;5094081;28;20452;-69
2022/05/25 03:14:11;;;;;;;10.93;8.50;;;10.80;99.90;;;;;;5075907;28;20044;-69
2022/05/25 03:16:36;;;;;;;10.38;8.52;;;10.70;99.90;;;;;;5075735;28;20051;-70
2022/05/25 03:19:02;;;;;;;11.57;8.50;;;10.80;99.90;;;;;;5058737;28;20052;-69
2022/05/25 03:21:27;;;;;;;11.23;8.65;;;10.70;99.90;;;;;;5093773;28;20040;-70
2022/05/25 03:23:53;;;;;;;10.80;8.43;;;10.70;99.90;;;;;;5093211;28;20725;-69
2022/05/25 03:26:19;;;;;;;11.23;7.72;;;11.00;99.90;;;;;;5093831;28;20407;-71
2022/05/25 03:28:45;;;;;;;9.73;7.85;;;10.60;99.90;;;;;;5093778;28;20536;-69
2022/05/25 03:31:11;;;;;;;11.43;9.27;;;10.70;99.90;;;;;;5075895;28;20377;-71
2022/05/25 03:33:36;;;;;;;14.68;9.15;;;11.10;99.90;;;;;;5075583;28;20047;-71
2022/05/25 03:36:03;;;;;;;12.80;9.32;;;10.70;99.90;;;;;;5093536;28;20044;-69
2022/05/25 03:38:28;;;;;;;11.45;8.88;;;10.60;99.90;;;;;;5093406;28;20044;-70
2022/05/25 03:40:55;;;;;;;12.35;9.20;;;10.70;99.90;;;;;;5093734;28;20093;-69
2022/05/25 03:43:21;;;;;;;10.90;8.15;;;10.60;99.90;;;;;;5075718;28;20487;-69
2022/05/25 03:45:47;;;;;;;12.00;9.18;;;10.60;99.90;;;;;;5075367;28;20051;-69
2022/05/25 03:48:14;;;;;;;10.05;8.23;;;11.50;99.90;;;;;;5075586;28;20040;-69
2022/05/25 03:50:41;;;;;;;12.40;9.35;;;10.60;99.90;;;;;;5093294;28;20086;-69
2022/05/25 03:53:08;;;;;;;11.70;8.55;;;10.60;99.90;;;;;;5093134;28;20488;-69
2022/05/25 03:55:35;;;;;;;12.65;8.57;;;10.60;99.90;;;;;;5075586;28;20052;-71
2022/05/25 03:58:02;;;;;;;10.90;8.75;;;10.60;99.90;;;;;;5093385;28;20044;-69
2022/05/25 04:00:29;;;;;;;13.15;8.82;;;10.60;99.90;;;;;;5075544;28;20087;-69
2022/05/25 04:02:56;;;;;;;12.60;8.50;;;10.60;99.90;;;;;;5075266;28;20052;-69
2022/05/25 04:05:22;;;;;;;14.02;9.60;;;10.80;99.90;;;;;;5074901;28;20044;-71
2022/05/25 04:07:48;;;;;;;12.93;9.60;;;11.10;99.90;;;;;;5075162;28;20048;-69
2022/05/25 04:10:18;;;;;;;13.15;8.95;;;10.90;99.90;;;;;;5093407;28;20047;-69
2022/05/25 04:12:44;;;;;;;11.43;8.93;;;10.80;99.90;;;;;;5093254;28;20434;-70
2022/05/25 04:15:13;;;;;;;11.57;9.35;;;10.60;99.90;;;;;;5093063;28;20047;-69
2022/05/25 04:17:38;;;;;;;13.55;10.27;;;10.80;99.90;;;;;;5058292;28;20399;-72
2022/05/25 04:20:06;;;;;;;11.50;8.85;;;10.80;99.90;;;;;;5092982;28;20048;-70
2022/05/25 04:22:32;;;;;;;16.15;10.50;;;10.60;99.90;;;;;;5075126;28;20044;-69
2022/05/25 04:25:04;;;;;;;13.00;9.65;;;10.70;99.90;;;;;;5109231;28;20507;-69
2022/05/25 04:27:30;;;;;;;12.43;8.85;;;11.40;99.90;;;;;;5093024;28;20040;-69
2022/05/25 04:29:55;;;;;;;12.35;9.85;;;10.60;99.90;;;;;;5075269;28;20500;-71
2022/05/25 04:32:21;;;;;;;10.98;8.15;;;10.60;99.90;;;;;;5093009;28;20090;-69
2022/05/25 04:34:47;;;;;;;17.67;9.77;;;10.60;99.90;;;;;;5092685;28;20036;-69
2022/05/25 04:39:57;;;;;;;11.63;9.27;;;10.70;99.90;;;;;;5096905;28;20062;-69
2022/05/25 04:42:28;;;;;;;11.82;9.30;;;10.90;99.90;;;;;;5113018;28;20051;-69
2022/05/25 04:44:59;;;;;;;16.13;10.35;;;10.70;99.90;;;;;;5096786;28;20083;-72
2022/05/25 04:47:27;;;;;;;11.75;8.88;;;10.80;99.90;;;;;;5096665;28;20048;-69
2022/05/25 04:49:52;;;;;;;12.80;10.18;;;10.80;99.90;;;;;;5096448;28;20122;-73
2022/05/25 04:52:18;;;;;;;13.38;9.48;;;10.80;99.90;;;;;;5078941;28;20091;-72
2022/05/25 04:54:43;;;;;;;14.77;9.65;;;10.80;99.90;;;;;;5096553;28;20098;-69
2022/05/25 04:57:22;;;;;;;12.67;9.43;;;11.20;99.90;;;;;;5096576;28;20045;-70
2022/05/25 04:59:52;;;;;;;13.75;9.82;;;10.90;99.90;;;;;;5096440;28;20623;-71
2022/05/25 05:02:19;;;;;;;10.90;8.63;;;10.90;99.90;;;;;;5078513;28;20048;-72
2022/05/25 05:04:46;;;;;;;10.00;8.13;;;11.20;99.90;;;;;;5096217;28;20160;-74
2022/05/25 05:07:13;;;;;;;14.60;9.35;;;11.00;99.90;;;;;;5096314;28;20135;-69
2022/05/25 05:09:41;;;;;;;11.93;8.93;;;11.00;99.90;;;;;;5096236;28;20538;-73
2022/05/25 05:12:08;;;;;;;12.77;8.82;;;11.10;99.90;;;;;;5096325;28;20135;-69
2022/05/25 05:14:33;;;;;;;;;;;11.10;99.90;;;;;;5078576;28;20040;-68
2022/05/25 05:17:01;;;;;;;14.60;9.63;;;11.00;99.90;;;;;;5112101;28;19927;-69
2022/05/25 05:19:28;;;;;;;13.23;8.50;;;11.20;99.90;;;;;;5096170;28;20185;-69
2022/05/25 05:21:54;;;;;;;12.93;9.35;;;11.20;99.90;;;;;;5096166;28;20534;-69
2022/05/25 05:24:21;;;;;;;15.13;10.25;;;11.20;99.90;;;;;;5096054;28;20097;-72
2022/05/25 05:26:47;;;;;;;12.70;8.60;;;11.40;99.90;;;;;;5112018;28;20552;-69
2022/05/25 05:29:12;;;;;;;11.85;7.80;;;11.30;99.90;;;;;;5077458;28;20131;-72
2022/05/25 05:31:38;;;;;;;11.10;8.75;;;11.40;99.90;;;;;;5111798;28;20079;-69
2022/05/25 05:34:04;;;;;;;12.32;8.48;;;11.40;99.90;;;;;;5111567;28;20040;-69
2022/05/25 05:36:39;;;;;;;;;;;11.50;99.90;;;;;;5096282;28;20040;-71
2022/05/25 05:39:07;;;;;;;13.77;8.98;;;11.50;99.90;;;;;;5078026;28;19923;-69
2022/05/25 05:41:44;;;;;;;12.10;8.00;;;11.50;99.90;;;;;;5077918;28;20048;-69
2022/05/25 05:44:14;;;;;;;14.48;8.48;;;11.60;99.90;;;;;;5095572;28;20044;-73
2022/05/25 05:46:42;;;;;;;10.95;7.40;;;12.50;99.90;;;;;;5095131;28;20044;-70
2022/05/25 05:49:13;;;;;;;10.38;7.72;;;11.70;99.90;;;;;;5076967;28;20446;-69
2022/05/25 05:51:39;;;;;;;13.05;8.00;;;11.70;99.90;;;;;;5095583;28;20114;-71
2022/05/25 05:54:06;;;;;;;15.20;7.40;;;11.80;99.90;;;;;;5095410;28;20571;-73
2022/05/25 05:56:33;;;;;;;12.50;7.80;;;12.00;99.90;;;;;;5077530;28;20052;-69
2022/05/25 05:59:00;;;;;;;12.15;8.18;;;11.80;99.90;;;;;;5077181;28;20048;-69
2022/05/25 06:01:25;;;;;;;11.32;7.95;;;11.90;99.90;;;;;;5095418;28;20047;-69
2022/05/25 06:03:51;;;;;;;14.45;7.70;;;12.00;99.90;;;;;;5094913;28;20048;-72
2022/05/25 06:06:17;;;;;;;10.73;7.65;;;12.00;99.90;;;;;;5095196;28;20048;-71
2022/05/25 06:08:46;;;;;;;10.45;7.70;;;12.10;99.90;;;;;;5077336;28;20044;-73
2022/05/25 06:11:13;;;;;;;11.65;7.10;;;12.20;99.90;;;;;;5095174;28;20048;-70
2022/05/25 06:13:40;;;;;;;10.77;7.78;;;12.20;99.90;;;;;;5094860;28;20073;-73
2022/05/25 06:21:34;;;;;;;10.93;6.72;;;12.50;99.90;;;;;;5077001;28;20059;-69
2022/05/25 06:24:00;;;;;;;11.90;6.55;;;12.50;99.90;;;;;;5094895;28;20400;-73
2022/05/25 06:26:27;;;;;;;14.50;6.57;;;12.50;99.90;;;;;;5109417;28;20052;-71
2022/05/25 06:28:53;;;;;;;8.73;6.18;;;12.60;99.90;;;;;;5094809;28;20051;-73
2022/05/25 06:31:19;;;;;;;10.80;7.03;;;12.60;99.90;;;;;;5110265;28;20052;-72
2022/05/25 06:33:45;;;;;;;;;;;12.80;99.90;;;;;;5076525;28;20123;-69
2022/05/25 06:36:18;;;;;;;10.23;7.22;;;13.60;99.90;;;;;;5076521;28;20023;-69
2022/05/25 06:38:44;;;;;;;7.88;5.18;;;12.90;99.90;;;;;;5094502;28;20404;-69
2022/05/25 06:41:10;;;;;;;;;;;13.10;99.90;;;;;;5094838;28;20442;-74
2022/05/25 06:43:36;;;;;;;9.05;5.90;;;13.00;99.90;;;;;;5094602;28;19923;-71
2022/05/25 06:46:02;;;;;;;8.43;5.47;;;13.10;99.90;;;;;;5076651;28;20559;-69
2022/05/25 06:48:27;;;;;;;11.95;5.90;;;13.10;99.90;;;;;;5076385;28;20039;-72
2022/05/25 06:50:53;;;;;;;11.40;6.15;;;13.20;99.90;;;;;;5094253;28;20048;-70
2022/05/25 06:53:19;;;;;;;12.40;5.88;;;13.30;99.90;;;;;;5094129;28;20093;-74
2022/05/25 06:55:46;;;;;;;9.07;5.72;;;13.30;99.90;;;;;;5094004;28;20040;-72
2022/05/25 06:58:11;;;;;;;8.63;5.78;;;13.40;99.90;;;;;;5075873;28;20511;-73
2022/05/25 07:00:37;;;;;;;7.82;5.60;;;13.40;99.90;;;;;;5076096;28;20052;-70
2022/05/25 07:03:06;;;;;;;6.20;4.88;;;13.50;99.90;;;;;;5094032;28;20149;-71
2022/05/25 07:05:33;;;;;;;11.30;6.25;;;13.50;99.90;;;;;;5075462;28;20052;-73
2022/05/25 07:07:59;;;;;;;7.22;5.10;;;13.60;99.90;;;;;;5093795;28;20121;-69
2022/05/25 07:10:26;;;;;;;11.68;5.95;;;13.70;99.90;;;;;;5093941;28;20105;-70
2022/05/25 07:12:52;;;;;;;8.55;5.53;;;13.80;99.90;;;;;;5094169;28;20082;-70
2022/05/25 07:15:18;;;;;;;10.95;5.20;;;14.30;99.90;;;;;;5075932;28;20438;-69
2022/05/25 07:17:43;;;;;;;8.77;5.38;;;13.90;99.90;;;;;;5093822;28;20040;-70
2022/05/25 07:20:10;;;;;;;8.73;5.95;;;13.90;99.90;;;;;;5093754;28;20510;-73
2022/05/25 07:22:36;;;;;;;;;;;13.90;99.90;;;;;;5094150;28;20052;-69
2022/05/25 07:25:02;;;;;;;9.07;5.88;;;14.00;99.90;;;;;;5109588;28;19969;-75
2022/05/25 07:27:28;;;;;;;11.13;5.40;;;14.10;99.90;;;;;;5075580;28;20087;-69
2022/05/25 07:29:53;;;;;;;7.72;5.63;;;14.20;99.90;;;;;;5075941;28;20476;-69
2022/05/25 07:32:20;;;;;;;8.07;5.30;;;14.30;99.90;;;;;;5075796;28;20044;-70
2022/05/25 07:34:47;;;;;;;;;;;14.30;99.90;;;;;;5093929;28;20077;-70
2022/05/25 07:37:21;;;;;;;7.70;5.13;;;14.40;99.90;;;;;;5075766;28;19920;-69
2022/05/25 07:40:09;;;;;;;9.77;5.40;;;14.40;99.90;;;;;;5075592;28;20118;-70
2022/05/25 07:42:35;;;;;;;8.35;4.72;;;14.50;99.90;;;;;;5093362;28;20496;-70
2022/05/25 07:45:03;;;;;;;12.00;5.68;;;14.50;99.90;;;;;;5093542;28;20039;-70
2022/05/25 07:47:32;;;;;;;10.75;6.15;;;14.60;99.90;;;;;;5093348;28;20047;-72
2022/05/25 07:49:57;;;;;;;7.68;4.75;;;14.60;99.90;;;;;;5093200;28;20076;-71
2022/05/25 07:52:26;;;;;;;7.35;4.47;;;14.70;99.90;;;;;;5075465;28;20141;-70
2022/05/25 07:54:51;;;;;;;7.78;4.93;;;14.70;99.90;;;;;;5093579;28;20082;-76
2022/05/25 07:57:17;;;;;;;6.85;4.65;;;14.80;99.90;;;;;;5109202;28;20044;-72
2022/05/25 07:59:43;;;;;;;7.85;5.07;;;14.80;99.90;;;;;;5058870;28;20118;-72
2022/05/25 08:07:52;;;;;;;7.60;3.88;;;15.00;99.90;;;;;;5093185;28;20052;-71
2022/05/25 08:10:23;;;;;;;8.52;5.22;;;15.00;99.90;;;;;;5094632;28;20081;-69
2022/05/25 08:12:52;;;;;;;7.65;4.60;;;15.00;99.90;;;;;;5079225;28;20047;-70
2022/05/25 08:15:18;;;;;;;7.72;4.50;;;15.00;99.90;;;;;;5097046;28;20070;-72
2022/05/25 08:17:44;;;;;;;8.55;4.50;;;15.00;99.90;;;;;;5112855;28;20126;-73
2022/05/25 08:20:10;;;;;;;11.45;4.57;;;15.10;99.90;;;;;;5097198;28;20044;-70
2022/05/25 08:22:37;;;;;;;8.18;4.30;;;15.20;99.90;;;;;;5079399;28;20063;-70
2022/05/25 08:25:07;;;;;;;7.90;3.58;;;15.20;99.90;;;;;;5097103;28;20043;-70
2022/05/25 08:27:33;;;;;;;7.35;3.90;;;15.20;99.90;;;;;;5078962;28;20094;-71
2022/05/25 08:29:59;;;;;;;6.43;3.95;;;15.20;99.90;;;;;;5078448;28;20083;-69
2022/05/25 08:32:25;;;;;;;10.98;3.08;;;15.20;99.90;;;;;;5078992;28;20051;-74
2022/05/25 08:34:50;;;;;;;5.53;3.35;;;15.30;99.90;;;;;;5096441;28;20527;-70
2022/05/25 08:37:17;;;;;;;4.65;3.47;;;15.30;99.90;;;;;;5096995;28;20083;-70
2022/05/25 08:39:46;;;;;;;7.63;4.05;;;15.40;99.90;;;;;;5096840;28;20123;-75
2022/05/25 08:42:18;;;;;;;4.63;3.15;;;15.50;99.90;;;;;;5096850;28;20044;-74
2022/05/25 08:44:46;;;;;;;4.80;3.63;;;15.50;99.90;;;;;;5078546;28;20043;-75
2022/05/25 08:47:13;;;;;;;7.72;3.20;;;15.50;99.90;;;;;;5096473;28;20105;-71
2022/05/25 08:49:42;;;;;;;5.55;2.72;;;15.60;99.90;;;;;;5096661;28;20126;-71
2022/05/25 08:52:32;;;;;;;7.53;3.30;;;15.70;99.90;;;;;;5078735;28;20054;-70
2022/05/25 08:54:59;;;;;;;5.68;3.63;;;15.80;99.90;;;;;;5078336;28;20043;-70
2022/05/25 08:57:35;;;;;;;5.05;3.67;;;15.90;99.90;;;;;;5096341;28;20047;-71
2022/05/25 09:00:17;;;;;;;4.57;2.70;;;15.90;99.90;;;;;;5096645;28;20087;-71
2022/05/25 09:03:07;;;;;;;6.03;2.95;;;15.90;99.90;;;;;;5061841;28;20048;-70
2022/05/25 09:05:40;;;;;;;4.50;2.72;;;15.80;99.90;;;;;;5096066;28;20105;-70
2022/05/25 09:08:39;;;;;;;5.07;2.63;;;15.70;99.90;;;;;;5096117;28;20079;-70
2022/05/25 09:11:11;;;;;;;6.63;2.67;;;15.70;99.90;;;;;;5094727;28;20522;-70
2022/05/25 09:13:51;;;;;;;10.77;3.58;;;15.80;99.90;;;;;;5096137;28;20094;-70
2022/05/25 09:16:18;;;;;;;5.65;3.05;;;15.80;99.90;;;;;;5096059;28;20044;-70
2022/05/25 09:19:13;;;;;;;4.60;2.50;;;15.90;99.90;;;;;;5095884;28;20134;-73
2022/05/25 09:22:06;;;;;;;4.72;2.75;;;16.00;99.90;;;;;;5095355;28;20052;-71
2022/05/25 09:24:32;;;;;;;6.80;2.95;;;16.10;99.90;;;;;;5078029;28;20055;-73
2022/05/25 09:26:59;;;;;;;5.78;3.00;;;16.10;99.90;;;;;;5077799;28;20415;-70
2022/05/25 09:29:25;;;;;;;4.88;2.58;;;16.10;99.90;;;;;;5095959;28;20036;-71
2022/05/25 09:32:11;;;;;;;4.13;2.20;;;16.00;99.90;;;;;;5095919;28;20542;-71
2022/05/25 09:34:47;;;;;;;6.45;2.30;;;16.10;99.90;;;;;;5095694;28;20150;-71
2022/05/25 09:37:34;;;;;;;3.40;2.10;;;16.10;99.90;;;;;;5077885;28;20040;-70
2022/05/25 09:40:14;;;;;;;4.57;1.85;;;16.10;99.90;;;;;;5095645;28;20040;-70
2022/05/25 09:42:40;;;;;;;4.85;1.50;;;16.10;99.90;;;;;;5078305;28;20059;-70
2022/05/25 09:45:16;;;;;;;4.88;2.17;;;16.10;99.90;;;;;;5095574;28;20048;-70
2022/05/25 09:47:45;;;;;;;4.28;2.00;;;16.10;99.90;;;;;;5060307;28;20502;-72
2022/05/25 09:50:24;;;;;;;4.07;1.90;;;16.10;99.90;;;;;;5095316;28;20044;-70
2022/05/25 09:52:51;;;;;;;2.75;1.75;;;16.10;99.90;;;;;;5077725;28;20048;-70
2022/05/25 09:55:25;;;;;;;4.20;1.85;;;16.10;99.90;;;;;;5095396;28;20040;-70
2022/05/25 09:58:02;;;;;;;2.63;2.03;;;16.10;99.90;;;;;;5095251;28;20044;-71
2022/05/25 10:00:34;;;;;;;3.95;2.05;;;16.20;99.90;;;;;;5095203;28;20131;-70
2022/05/25 10:03:22;;;;;;;7.05;2.22;;;16.20;99.90;;;;;;5095364;28;20052;-70
2022/05/25 10:05:57;;;;;;;4.45;2.05;;;16.30;99.90;;;;;;5095154;28;20052;-72
2022/05/25 10:08:32;;;;;;;4.22;2.33;;;16.30;99.90;;;;;;5095083;28;20502;-72
2022/05/25 10:11:28;;;;;;;3.60;2.50;;;16.40;99.90;;;;;;5094972;28;20055;-71
2022/05/25 10:13:55;;;;;;;3.55;2.30;;;16.40;99.90;;;;;;5094541;28;20109;-71
2022/05/25 10:16:21;;;;;;;3.00;1.85;;;16.40;99.90;;;;;;5094990;28;20121;-74
2022/05/25 10:18:48;;;;;;;3.60;2.33;;;16.50;99.90;;;;;;5094890;28;20073;-70
2022/05/25 10:21:30;;;;;;;2.78;1.95;;;16.50;99.90;;;;;;5060308;28;20044;-72
2022/05/25 10:23:57;;;;;;;3.67;2.47;;;16.50;99.90;;;;;;5094974;28;20052;-74
2022/05/25 10:26:45;;;;;;;4.80;1.75;;;16.50;99.90;;;;;;5094902;28;20044;-69
2022/05/25 10:36:45;;;;;;;7.55;2.63;;;16.50;99.90;;;;;;5094486;28;20055;-70
2022/05/25 10:38:24;;;;;;;3.42;2.60;;;16.40;99.90;;;;;;5028453;28;20115;-74
2022/05/25 10:40:49;;;;;;;3.60;2.40;;;16.50;99.90;;;;;;5023721;28;20085;-76
2022/05/25 10:43:22;;;;;;;6.65;2.70;;;16.50;99.90;;;;;;5031144;28;20170;-72
2022/05/25 10:45:51;;;;;;;6.22;3.53;;;16.60;99.90;;;;;;5031214;28;20061;-72
2022/05/25 10:48:54;;;;;;;3.60;2.75;;;16.60;99.90;;;;;;5031565;28;20536;-72
2022/05/25 10:51:35;;;;;;;3.78;2.75;;;16.60;99.90;;;;;;5031512;28;20068;-75
2022/05/25 10:57:17;;;;;;;3.70;3.25;;;16.70;99.90;;;;;;5011611;28;20514;-74
2022/05/25 10:59:42;;;;;;;5.10;2.77;;;16.70;99.90;;;;;;5012001;28;20049;-73
2022/05/25 11:02:22;;;;;;;5.75;2.55;;;16.70;99.90;;;;;;5011861;28;20059;-73
2022/05/25 11:05:02;;;;;;;3.67;1.95;;;16.60;99.90;;;;;;4981559;28;20089;-73
2022/05/25 11:07:33;;;;;;;3.53;2.25;;;16.60;99.90;;;;;;4991970;28;20101;-74
2022/05/25 11:10:20;;;;;;;3.63;2.25;;;16.50;99.90;;;;;;5022471;28;20089;-73
2022/05/25 11:12:59;;;;;;;3.97;3.03;;;16.50;99.90;;;;;;5033582;28;20136;-74
2022/05/25 11:15:34;;;;;;;3.28;2.50;;;16.50;99.90;;;;;;5033375;28;20088;-73
2022/05/25 11:18:33;;;;;;;5.05;2.17;;;16.50;99.90;;;;;;5033265;28;20052;-71
2022/05/25 11:21:09;;;;;;;3.80;3.40;;;16.40;99.90;;;;;;5033279;28;20088;-74
2022/05/25 11:23:41;;;;;;;3.50;3.10;;;16.40;99.90;;;;;;5033444;28;20052;-71
2022/05/25 11:26:49;;;;;;;3.10;2.60;;;16.40;99.90;;;;;;5065476;28;20625;-75
2022/05/25 11:29:33;;;;;;;3.65;2.33;;;16.40;99.90;;;;;;5011280;28;20410;-71
2022/05/25 11:32:21;;;;;;;3.08;2.20;;;16.30;99.90;;;;;;5011215;28;20054;-72
2022/05/25 11:34:55;;;;;;;5.13;2.22;;;16.40;99.90;;;;;;5010928;28;20592;-72
2022/05/25 11:37:33;;;;;;;3.30;1.85;;;16.50;99.90;;;;;;5011188;28;20049;-74
2022/05/25 11:40:20;;;;;;;2.92;1.80;;;16.60;99.90;;;;;;4994859;28;20062;-73
2022/05/25 11:42:54;;;;;;;2.97;2.28;;;16.70;99.90;;;;;;5027868;28;20057;-73
2022/05/25 11:45:43;;;;;;;5.30;1.75;;;16.80;99.90;;;;;;5010615;28;20053;-71
2022/05/25 11:48:38;;;;;;;4.65;2.67;;;16.80;99.90;;;;;;5010847;28;20097;-73
2022/05/25 11:51:31;;;;;;;2.83;2.50;;;16.90;99.90;;;;;;5027651;28;20064;-72
2022/05/25 11:54:12;;;;;;;3.63;2.53;;;16.90;99.90;;;;;;5010634;28;20052;-75
2022/05/25 11:57:00;;;;;;;3.67;2.85;;;17.00;99.90;;;;;;5027002;28;20081;-71
2022/05/25 11:59:44;;;;;;;3.75;2.15;;;17.00;99.90;;;;;;5029098;28;20083;-72
2022/05/25 12:02:48;;;;;;;7.13;3.63;;;17.10;99.90;;;;;;5024944;28;20061;-72
2022/05/25 12:05:25;;;;;;;5.05;3.28;;;17.20;99.90;;;;;;4920441;28;20142;-72
2022/05/25 12:08:17;;;;;;;4.72;3.28;;;17.30;99.90;;;;;;4970054;28;20522;-75
2022/05/25 12:11:05;;;;;;;5.25;3.03;;;17.30;99.90;;;;;;4971670;28;20121;-72
2022/05/25 12:13:46;;;;;;;4.03;2.80;;;17.30;99.90;;;;;;4971437;28;20050;-72
2022/05/25 12:16:39;;;;;;;4.15;3.25;;;17.20;99.90;;;;;;4954790;28;20070;-72
2022/05/25 12:19:26;;;;;;;5.03;2.90;;;17.20;99.90;;;;;;4970034;28;21619;-74
2022/05/25 12:21:55;;;;;;;;;;;17.10;99.90;;;;;;4971215;28;20141;-70
2022/05/25 12:24:30;;;;;;;7.85;3.30;;;17.00;99.90;;;;;;4971765;28;20017;-72
2022/05/25 12:26:57;;;;;;;4.53;3.45;;;17.00;99.90;;;;;;4971573;28;20121;-71
2022/05/25 12:29:30;;;;;;;5.55;3.70;;;16.90;99.90;;;;;;4971305;28;20252;-72
2022/05/25 12:31:57;;;;;;;6.95;3.03;;;16.90;99.90;;;;;;4971641;28;20055;-74
2022/05/25 12:34:39;;;;;;;2.30;1.55;;;16.80;99.90;;;;;;4955195;28;20089;-73
2022/05/25 12:37:08;;;;;;;2.92;1.85;;;16.80;99.90;;;;;;4971737;28;20093;-74
2022/05/25 12:39:43;;;;;;;6.60;2.55;;;16.70;99.90;;;;;;4971675;28;20057;-71
2022/05/25 12:42:23;;;;;;;10.32;4.28;;;16.70;99.90;;;;;;5015563;28;20145;-75
2022/05/25 12:50:53;;;;;;;8.40;4.35;;;16.00;99.90;;;;;;5052159;28;20052;-73
2022/05/25 12:53:20;;;;;;;5.47;3.42;;;15.60;99.90;;;;;;5052458;28;20060;-70
2022/05/25 12:55:56;;;;;;;8.57;4.00;;;15.30;99.90;;;;;;5052134;28;20045;-72
2022/05/25 12:58:42;;;;;;;5.30;3.47;;;15.10;99.90;;;;;;5055444;28;20127;-74
2022/05/25 13:01:29;;;;;;;7.97;3.80;;;14.90;99.90;;;;;;5054865;28;20052;-73
2022/05/25 13:03:55;;;;;;;5.45;4.00;;;14.90;99.90;;;;;;5063401;28;20044;-73
2022/05/25 13:06:29;;;;;;;5.50;3.63;;;14.90;99.90;;;;;;5078141;28;20131;-72
2022/05/25 13:08:55;;;;;;;5.80;3.47;;;14.90;99.90;;;;;;5096099;28;20048;-74
2022/05/25 13:11:36;;;;;;;6.05;3.22;;;15.00;99.90;;;;;;5078288;28;20097;-72
2022/05/25 13:14:06;;;;;;;5.82;4.28;;;15.00;99.90;;;;;;5095878;28;20054;-71
2022/05/25 13:16:41;;;;;;;7.13;4.35;;;15.10;99.90;;;;;;5096092;28;20097;-70
2022/05/25 13:19:45;;;;;;;6.47;4.60;;;15.30;99.90;;;;;;5095925;28;20043;-73
2022/05/25 13:22:16;;;;;;;6.97;4.45;;;15.30;99.90;;;;;;5077882;28;20046;-74
2022/05/25 13:25:09;;;;;;;6.25;4.40;;;15.40;99.90;;;;;;5095984;28;20051;-71
2022/05/25 13:27:44;;;;;;;7.30;4.65;;;15.50;99.90;;;;;;5095824;28;20059;-73
2022/05/25 13:30:18;;;;;;;7.65;4.93;;;15.60;99.90;;;;;;5095648;28;20113;-71
2022/05/25 13:32:57;;;;;;;8.35;5.38;;;15.60;99.90;;;;;;5095256;28;20040;-73
2022/05/25 13:35:26;;;;;;;8.63;5.38;;;15.60;99.90;;;;;;5095524;28;20036;-73
2022/05/25 13:38:03;;;;;;;7.18;5.60;;;15.60;99.90;;;;;;5077876;28;20051;-71
2022/05/25 13:40:40;;;;;;;5.88;4.70;;;15.60;99.90;;;;;;5095591;28;20091;-73
2022/05/25 13:43:10;;;;;;;7.60;5.43;;;15.60;99.90;;;;;;5077565;28;20052;-70